createdAt,value
2022-09-21T00:00:37.026Z,45.1
2022-09-21T00:01:53.313Z,44.1
2022-09-21T00:04:25.916Z,44.4
2022-09-21T00:05:42.207Z,47.5
2022-09-21T00:06:58.503Z,45.2
2022-09-21T00:08:14.802Z,45.4
2022-09-21T00:09:31.085Z,44.9
2022-09-21T00:10:46.396Z,46.8
2022-09-21T00:12:02.701Z,44.7
2022-09-21T00:13:18.979Z,49.4
2022-09-21T00:14:35.290Z,45.7
2022-09-21T00:15:51.586Z,45.1
2022-09-21T00:17:07.868Z,45.2
2022-09-21T00:18:24.161Z,44.1
2022-09-21T00:19:40.457Z,45.2
2022-09-21T00:20:56.759Z,44.7
2022-09-21T00:22:13.049Z,44.9
2022-09-21T00:23:29.347Z,44.4
2022-09-21T00:24:45.629Z,44.1
2022-09-21T00:26:01.937Z,44.4
2022-09-21T00:27:18.226Z,44.4
2022-09-21T00:28:33.530Z,44.1
2022-09-21T00:29:49.826Z,44.3
2022-09-21T00:31:06.128Z,44.6
2022-09-21T00:32:22.000Z,44.4
2022-09-21T00:33:38.710Z,44.1
2022-09-21T00:34:55.006Z,44.1
2022-09-21T00:36:11.300Z,44.1
2022-09-21T00:37:27.600Z,44.1
2022-09-21T00:40:00.200Z,44.1
2022-09-21T00:41:16.482Z,44.4
2022-09-21T00:42:32.791Z,44.6
2022-09-21T00:43:49.065Z,44.1
2022-09-21T00:45:04.381Z,44.3
2022-09-21T00:47:36.981Z,44.9
2022-09-21T00:50:09.557Z,44.1
2022-09-21T00:51:24.872Z,44.7
2022-09-21T00:52:40.181Z,44.4
2022-09-21T00:53:56.492Z,44.3
2022-09-21T00:55:12.784Z,44.4
2022-09-21T00:56:29.067Z,44.1
2022-09-21T00:57:45.376Z,44.3
2022-09-21T00:59:01.675Z,55.9
2022-09-21T01:00:17.956Z,44.7
2022-09-21T01:01:34.253Z,44.7
2022-09-21T01:02:50.542Z,47.2
2022-09-21T01:04:06.835Z,50.2
2022-09-21T01:05:23.135Z,47.3
2022-09-21T01:06:38.464Z,52.2
2022-09-21T01:07:53.761Z,45.4
2022-09-21T01:09:10.063Z,45.6
2022-09-21T01:10:26.352Z,43.9
2022-09-21T01:11:42.659Z,44.6
2022-09-21T01:12:58.943Z,44.4
2022-09-21T01:15:31.533Z,45.1
2022-09-21T01:16:47.832Z,46.8
2022-09-21T01:18:04.130Z,46.2
2022-09-21T01:19:20.427Z,48.9
2022-09-21T01:20:36.714Z,48.1
2022-09-21T01:21:52.998Z,48.5
2022-09-21T01:23:09.309Z,46.2
2022-09-21T01:24:24.624Z,46.4
2022-09-21T01:25:40.904Z,45.1
2022-09-21T01:28:13.502Z,46.5
2022-09-21T01:29:28.808Z,45.9
2022-09-21T01:30:44.129Z,47.6
2022-09-21T01:32:00.422Z,45.4
2022-09-21T01:33:16.717Z,45.9
2022-09-21T01:34:33.004Z,45.2
2022-09-21T01:35:49.305Z,45.6
2022-09-21T01:37:05.598Z,45.2
2022-09-21T01:38:21.891Z,44.6
2022-09-21T01:39:38.192Z,45.1
2022-09-21T01:40:54.470Z,44.9
2022-09-21T01:43:27.077Z,45.2
2022-09-21T01:44:43.374Z,45.2
2022-09-21T01:45:59.665Z,45.1
2022-09-21T01:47:14.971Z,44.3
2022-09-21T01:48:31.272Z,44.3
2022-09-21T01:49:47.560Z,45.7
2022-09-21T01:51:03.000Z,44.3
2022-09-21T01:52:20.155Z,44.3
2022-09-21T01:53:36.434Z,44.6
2022-09-21T01:54:52.746Z,46.4
2022-09-21T01:56:09.034Z,44.3
2022-09-21T01:58:40.000Z,48.3
2022-09-21T02:01:12.242Z,44.6
2022-09-21T02:02:27.561Z,45.7
2022-09-21T02:03:43.856Z,45.9
2022-09-21T02:05:00.152Z,44.4
2022-09-21T02:06:16.441Z,45.6
2022-09-21T02:07:31.762Z,45.2
2022-09-21T02:08:48.067Z,46
2022-09-21T02:10:04.353Z,44.1
2022-09-21T02:11:20.649Z,44.6
2022-09-21T02:12:36.950Z,44.7
2022-09-21T02:13:53.236Z,45.6
2022-09-21T02:15:09.545Z,44.6
2022-09-21T02:16:24.842Z,45.9
2022-09-21T02:17:40.159Z,44.3
2022-09-21T02:18:56.454Z,44.9
2022-09-21T02:20:12.754Z,48.1
2022-09-21T02:21:29.035Z,46
2022-09-21T02:22:45.347Z,44.6
2022-09-21T02:24:01.643Z,45.4
2022-09-21T02:25:17.933Z,44.7
2022-09-21T02:26:34.229Z,44.4
2022-09-21T02:27:50.525Z,44.6
2022-09-21T02:29:06.803Z,46.2
2022-09-21T02:30:22.140Z,46.7
2022-09-21T02:31:37.433Z,46.8
2022-09-21T02:32:53.728Z,47.6
2022-09-21T02:34:10.034Z,47.6
2022-09-21T02:35:26.330Z,57.8
2022-09-21T02:36:42.608Z,52
2022-09-21T02:37:58.923Z,47.5
2022-09-21T02:39:15.203Z,47.6
2022-09-21T02:40:31.494Z,45.9
2022-09-21T02:41:47.791Z,48.6
2022-09-21T02:43:04.102Z,47.5
2022-09-21T02:44:20.395Z,47.3
2022-09-21T02:45:36.686Z,47.3
2022-09-21T02:46:52.986Z,45.7
2022-09-21T02:48:08.296Z,47
2022-09-21T02:49:24.582Z,48.3
2022-09-21T02:50:40.871Z,46.5
2022-09-21T02:51:57.169Z,46.5
2022-09-21T02:53:13.467Z,46.8
2022-09-21T02:54:29.762Z,57.2
2022-09-21T02:57:02.357Z,51.7
2022-09-21T02:58:18.637Z,48.3
2022-09-21T02:59:34.940Z,50.4
2022-09-21T03:00:51.234Z,47.2
2022-09-21T03:02:07.538Z,47.2
2022-09-21T03:03:23.835Z,48
2022-09-21T03:04:40.112Z,48.8
2022-09-21T03:05:55.428Z,47.6
2022-09-21T03:07:11.728Z,47.6
2022-09-21T03:08:28.011Z,53.8
2022-09-21T03:09:44.305Z,51.7
2022-09-21T03:12:16.907Z,48.6
2022-09-21T03:13:33.206Z,51.8
2022-09-21T03:14:49.496Z,62.3
2022-09-21T03:16:05.781Z,50.5
2022-09-21T03:17:22.074Z,48.6
2022-09-21T03:19:54.682Z,49.9
2022-09-21T03:21:09.993Z,47.6
2022-09-21T03:22:26.283Z,48.3
2022-09-21T03:23:41.588Z,48.6
2022-09-21T03:24:57.881Z,52.6
2022-09-21T03:27:30.489Z,48.3
2022-09-21T03:28:46.769Z,48.3
2022-09-21T03:30:03.074Z,48.3
2022-09-21T03:31:19.369Z,49.6
2022-09-21T03:32:35.670Z,47.6
2022-09-21T03:35:08.246Z,51.7
2022-09-21T03:36:24.542Z,48.8
2022-09-21T03:37:40.837Z,48
2022-09-21T03:38:56.164Z,49.9
2022-09-21T03:40:11.473Z,48.8
2022-09-21T03:42:44.058Z,51.2
2022-09-21T03:44:00.354Z,48.6
2022-09-21T03:45:16.647Z,49.1
2022-09-21T03:46:32.932Z,49.1
2022-09-21T03:47:49.244Z,50.4
2022-09-21T03:49:05.538Z,49.6
2022-09-21T03:50:21.834Z,49.9
2022-09-21T03:51:38.124Z,50.5
2022-09-21T03:52:54.406Z,51.7
2022-09-21T03:54:10.708Z,52.5
2022-09-21T03:55:27.010Z,51.7
2022-09-21T03:56:42.307Z,49.6
2022-09-21T03:57:58.616Z,49.7
2022-09-21T03:59:14.898Z,49.6
2022-09-21T04:00:31.192Z,50.2
2022-09-21T04:01:47.504Z,50.2
2022-09-21T04:03:03.783Z,51.2
2022-09-21T04:05:36.388Z,52
2022-09-21T04:06:52.673Z,50.4
2022-09-21T04:08:08.977Z,50.5
2022-09-21T04:09:24.274Z,56
2022-09-21T04:10:39.605Z,53.1
2022-09-21T04:13:12.182Z,50.4
2022-09-21T04:15:44.778Z,52.2
2022-09-21T04:17:01.021Z,52.8
2022-09-21T04:18:17.304Z,52.2
2022-09-21T04:19:33.566Z,53.3
2022-09-21T04:22:06.048Z,51.8
2022-09-21T04:23:22.344Z,55.7
2022-09-21T04:24:38.600Z,54.1
2022-09-21T04:25:54.839Z,52.5
2022-09-21T04:28:26.394Z,51.7
2022-09-21T04:29:41.665Z,52.5
2022-09-21T04:30:57.907Z,55.1
2022-09-21T04:32:13.150Z,52
2022-09-21T04:33:29.391Z,51.8
2022-09-21T04:36:01.876Z,53.4
2022-09-21T04:37:18.120Z,52.2
2022-09-21T04:38:34.000Z,54.9
2022-09-21T04:39:50.609Z,52.5
2022-09-21T04:41:06.852Z,53.3
2022-09-21T04:43:39.310Z,53.9
2022-09-21T04:44:55.557Z,53.4
2022-09-21T04:46:11.799Z,52.5
2022-09-21T04:47:28.038Z,51.2
2022-09-21T04:48:43.286Z,54.9
2022-09-21T04:49:59.539Z,51.7
2022-09-21T04:51:15.770Z,48.8
2022-09-21T04:52:32.009Z,52.3
2022-09-21T04:53:48.251Z,51.4
2022-09-21T04:55:04.489Z,52.8
2022-09-21T04:56:20.732Z,52.8
2022-09-21T04:58:53.230Z,50.4
2022-09-21T05:00:09.456Z,51.8
2022-09-21T05:01:25.710Z,51.5
2022-09-21T05:02:41.950Z,52.8
2022-09-21T05:03:58.187Z,52.6
2022-09-21T05:06:29.675Z,52.2
2022-09-21T05:09:02.159Z,55.1
2022-09-21T05:10:18.412Z,53
2022-09-21T05:11:34.654Z,53.1
2022-09-21T05:14:07.139Z,53.4
2022-09-21T05:16:39.607Z,53.6
2022-09-21T05:17:55.848Z,58
2022-09-21T05:19:12.093Z,59.1
2022-09-21T05:20:28.324Z,53.1
2022-09-21T05:21:44.584Z,60.7
2022-09-21T05:24:16.076Z,59.9
2022-09-21T05:25:32.318Z,58.6
2022-09-21T05:26:48.555Z,71.8
2022-09-21T05:29:21.041Z,63.3
2022-09-21T05:31:53.514Z,70.5
2022-09-21T05:33:09.757Z,63
2022-09-21T05:34:25.995Z,75
2022-09-21T05:35:42.248Z,70.7
2022-09-21T05:36:58.478Z,58.3
2022-09-21T05:38:14.713Z,75.5
2022-09-21T05:39:30.963Z,70.7
2022-09-21T05:40:47.213Z,68.4
2022-09-21T05:42:02.457Z,60.2
2022-09-21T05:43:18.701Z,60.5
2022-09-21T05:44:34.949Z,56
2022-09-21T05:47:07.416Z,56.8
2022-09-21T05:48:23.662Z,56.8
2022-09-21T05:49:39.898Z,56
2022-09-21T05:50:56.144Z,58.9
2022-09-21T05:52:12.391Z,56.3
2022-09-21T05:54:44.864Z,67.9
2022-09-21T05:56:01.117Z,69.6
2022-09-21T05:57:17.347Z,69.7
2022-09-21T05:58:33.597Z,67.5
2022-09-21T05:59:49.825Z,52.3
2022-09-21T06:01:05.098Z,63.1
2022-09-21T06:02:21.337Z,58.4
2022-09-21T06:03:37.567Z,64.9
2022-09-21T06:04:53.815Z,62.5
2022-09-21T06:07:26.294Z,53
2022-09-21T06:09:58.768Z,52.8
2022-09-21T06:11:15.009Z,53.9
2022-09-21T06:12:31.248Z,51.5
2022-09-21T06:13:47.498Z,53.4
2022-09-21T06:15:03.745Z,58.3
2022-09-21T06:16:19.978Z,64.4
2022-09-21T06:17:36.228Z,58.4
2022-09-21T06:18:52.460Z,57.3
2022-09-21T06:20:07.716Z,60.9
2022-09-21T06:21:23.964Z,61.3
2022-09-21T06:22:40.204Z,53.8
2022-09-21T06:23:55.455Z,50.9
2022-09-21T06:25:11.691Z,52.5
2022-09-21T06:26:27.947Z,56.8
2022-09-21T06:27:44.185Z,61.2
2022-09-21T06:29:00.415Z,55.7
2022-09-21T06:30:16.655Z,52
2022-09-21T06:31:32.906Z,64.7
2022-09-21T06:32:49.135Z,60.2
2022-09-21T06:35:20.639Z,60.7
2022-09-21T06:36:35.910Z,59.7
2022-09-21T06:37:52.160Z,57.8
2022-09-21T06:40:23.651Z,55.4
2022-09-21T06:41:39.887Z,57.6
2022-09-21T06:42:56.118Z,49.3
2022-09-21T06:44:12.367Z,55.5
2022-09-21T06:45:28.616Z,50.1
2022-09-21T06:46:44.856Z,50.1
2022-09-21T06:48:01.090Z,51.8
2022-09-21T06:49:17.341Z,54.3
2022-09-21T06:50:33.583Z,54.4
2022-09-21T06:51:49.823Z,48.6
2022-09-21T06:53:06.063Z,49.1
2022-09-21T06:54:22.300Z,50.1
2022-09-21T06:55:38.525Z,49.3
2022-09-21T06:56:54.784Z,51.2
2022-09-21T06:58:10.037Z,50.1
2022-09-21T06:59:26.277Z,57.3
2022-09-21T07:00:42.517Z,48.1
2022-09-21T07:03:15.001Z,67.5
2022-09-21T07:04:31.245Z,49.3
2022-09-21T07:05:47.475Z,50.4
2022-09-21T07:07:02.734Z,48.3
2022-09-21T07:08:18.969Z,49.1
2022-09-21T07:10:50.482Z,50.2
2022-09-21T07:12:06.718Z,48.8
2022-09-21T07:13:22.955Z,49.3
2022-09-21T07:14:39.206Z,52.3
2022-09-21T07:15:55.442Z,48.9
2022-09-21T07:18:27.914Z,49.4
2022-09-21T07:19:44.165Z,50.5
2022-09-21T07:21:00.399Z,48.6
2022-09-21T07:22:16.635Z,48.1
2022-09-21T07:23:32.875Z,49.9
2022-09-21T07:26:04.385Z,47.8
2022-09-21T07:27:20.627Z,56.5
2022-09-21T07:28:35.884Z,57.2
2022-09-21T07:29:51.137Z,56.3
2022-09-21T07:31:07.383Z,57.2
2022-09-21T07:33:39.865Z,59.6
2022-09-21T07:34:56.113Z,55.4
2022-09-21T07:36:12.338Z,54.3
2022-09-21T07:37:28.590Z,51
2022-09-21T07:38:44.822Z,56.2
2022-09-21T07:41:17.316Z,50.5
2022-09-21T07:42:33.553Z,50.4
2022-09-21T07:43:49.800Z,46.8
2022-09-21T07:45:05.050Z,47
2022-09-21T07:46:21.287Z,49.4
2022-09-21T07:48:53.766Z,46.7
2022-09-21T07:50:09.037Z,57.2
2022-09-21T07:51:25.285Z,54.3
2022-09-21T07:52:41.507Z,56.8
2022-09-21T07:53:57.748Z,45.4
2022-09-21T07:56:30.243Z,46
2022-09-21T07:57:46.483Z,44.7
2022-09-21T07:59:02.708Z,54.9
2022-09-21T08:00:18.957Z,49.6
2022-09-21T08:01:35.196Z,52.3
2022-09-21T08:04:07.672Z,52.2
2022-09-21T08:05:23.910Z,49.3
2022-09-21T08:06:39.174Z,48
2022-09-21T08:07:55.424Z,46.4
2022-09-21T08:09:11.654Z,51.2
2022-09-21T08:11:44.130Z,50.1
2022-09-21T08:13:00.377Z,56.8
2022-09-21T08:14:16.617Z,47.8
2022-09-21T08:15:32.849Z,49.3
2022-09-21T08:16:49.102Z,46
2022-09-21T08:19:21.576Z,45.1
2022-09-21T08:20:37.816Z,44.7
2022-09-21T08:21:54.064Z,47.6
2022-09-21T08:23:09.311Z,45.2
2022-09-21T08:24:25.567Z,47.2
2022-09-21T08:26:58.048Z,48.1
2022-09-21T08:28:14.272Z,49.6
2022-09-21T08:29:30.521Z,52.2
2022-09-21T08:30:46.763Z,48.1
2022-09-21T08:32:03.010Z,57.6
2022-09-21T08:34:35.474Z,54.6
2022-09-21T08:35:51.730Z,53.9
2022-09-21T08:37:07.962Z,47.3
2022-09-21T08:38:24.200Z,45.6
2022-09-21T08:39:39.469Z,45.6
2022-09-21T08:42:11.948Z,46.5
2022-09-21T08:43:28.188Z,44.4
2022-09-21T08:44:44.419Z,45.2
2022-09-21T08:46:00.660Z,44.6
2022-09-21T08:47:16.898Z,45.4
2022-09-21T08:49:49.383Z,48.9
2022-09-21T08:51:05.637Z,49.9
2022-09-21T08:52:21.867Z,44.9
2022-09-21T08:53:38.108Z,44.6
2022-09-21T08:54:54.340Z,47.6
2022-09-21T08:59:58.328Z,48.8
2022-09-21T09:01:14.556Z,44.4
2022-09-21T09:02:30.794Z,48.5
2022-09-21T09:05:03.287Z,54.4
2022-09-21T09:06:19.530Z,54.7
2022-09-21T09:07:35.770Z,45.1
2022-09-21T09:08:52.006Z,51.2
2022-09-21T09:10:08.251Z,53.1
2022-09-21T09:12:40.732Z,49.7
2022-09-21T09:15:12.221Z,49.9
2022-09-21T09:16:28.470Z,44.7
2022-09-21T09:17:44.706Z,44.9
2022-09-21T09:20:17.173Z,47.3
2022-09-21T09:21:33.417Z,53.6
2022-09-21T09:22:49.661Z,48.3
2022-09-21T09:24:05.899Z,49.6
2022-09-21T09:25:22.145Z,48.3
2022-09-21T09:27:54.625Z,49.9
2022-09-21T09:29:10.854Z,49.9
2022-09-21T09:30:26.128Z,52.2
2022-09-21T09:31:42.365Z,53.4
2022-09-21T09:32:58.591Z,50.1
2022-09-21T09:35:31.084Z,50.4
2022-09-21T09:36:47.311Z,55.4
2022-09-21T09:38:03.552Z,43.1
2022-09-21T09:39:19.794Z,43.3
2022-09-21T09:41:52.287Z,43
2022-09-21T09:43:08.515Z,42.8
2022-09-21T09:44:24.761Z,44.1
2022-09-21T09:45:40.996Z,43.8
2022-09-21T09:46:56.265Z,53.9
2022-09-21T09:48:12.499Z,44.6
2022-09-21T09:50:44.974Z,43.9
2022-09-21T09:52:01.218Z,44.1
2022-09-21T09:53:17.451Z,52.6
2022-09-21T09:54:33.704Z,43.1
2022-09-21T09:55:49.951Z,50.7
2022-09-21T09:57:06.183Z,43
2022-09-21T09:58:22.423Z,43.8
2022-09-21T09:59:38.661Z,43.6
2022-09-21T10:00:54.903Z,48.5
2022-09-21T10:02:11.143Z,42.8
2022-09-21T10:03:26.386Z,44.6
2022-09-21T10:05:58.882Z,43.9
2022-09-21T10:07:15.121Z,43.5
2022-09-21T10:08:31.359Z,43.3
2022-09-21T10:09:47.588Z,43.1
2022-09-21T10:11:03.836Z,43.9
2022-09-21T10:13:36.314Z,49.4
2022-09-21T10:14:52.563Z,44.9
2022-09-21T10:16:08.785Z,43.3
2022-09-21T10:17:25.025Z,43.1
2022-09-21T10:18:41.275Z,43.1
2022-09-21T10:21:12.773Z,44.6
2022-09-21T10:22:29.013Z,46.2
2022-09-21T10:23:45.248Z,43.1
2022-09-21T10:25:01.487Z,44.4
2022-09-21T10:26:17.730Z,42.8
2022-09-21T10:28:50.213Z,43.6
2022-09-21T10:30:06.453Z,43.9
2022-09-21T10:31:22.693Z,43.1
2022-09-21T10:32:38.930Z,43.6
2022-09-21T10:33:55.183Z,53.4
2022-09-21T10:35:11.421Z,63
2022-09-21T10:36:27.641Z,59.2
2022-09-21T10:37:42.900Z,52.5
2022-09-21T10:38:58.164Z,52
2022-09-21T10:40:14.418Z,54.9
2022-09-21T10:41:30.659Z,51.8
2022-09-21T10:42:46.896Z,54.1
2022-09-21T10:44:03.138Z,52
2022-09-21T10:45:19.362Z,43.6
2022-09-21T10:46:35.602Z,54.4
2022-09-21T10:47:50.863Z,54.6
2022-09-21T10:49:06.129Z,57.2
2022-09-21T10:51:38.616Z,54.3
2022-09-21T10:52:54.842Z,56.2
2022-09-21T10:54:11.081Z,56.2
2022-09-21T10:55:27.321Z,43.1
2022-09-21T10:56:43.565Z,45.1
2022-09-21T10:59:16.040Z,44.3
2022-09-21T11:00:32.282Z,44.7
2022-09-21T11:01:48.526Z,55.9
2022-09-21T11:03:04.766Z,96.6
2022-09-21T11:04:20.026Z,64.4
2022-09-21T11:06:51.529Z,57.5
2022-09-21T11:08:07.773Z,43.5
2022-09-21T11:09:24.013Z,44.9
2022-09-21T11:10:40.236Z,53.9
2022-09-21T11:11:56.478Z,45.9
2022-09-21T11:14:28.960Z,45.6
2022-09-21T11:15:45.215Z,44.9
2022-09-21T11:17:01.436Z,44.9
2022-09-21T11:18:17.694Z,45.9
2022-09-21T11:19:33.924Z,57.2
2022-09-21T11:22:06.408Z,44.1
2022-09-21T11:23:21.662Z,51.5
2022-09-21T11:24:37.900Z,56.5
2022-09-21T11:25:54.138Z,43.9
2022-09-21T11:27:10.386Z,44.6
2022-09-21T11:29:42.856Z,45.1
2022-09-21T11:30:59.098Z,58.1
2022-09-21T11:32:15.352Z,58
2022-09-21T11:33:31.582Z,45.7
2022-09-21T11:34:47.827Z,46.2
2022-09-21T11:36:04.062Z,48.8
2022-09-21T11:37:20.312Z,45.1
2022-09-21T11:38:36.540Z,46.4
2022-09-21T11:39:51.809Z,43.1
2022-09-21T11:41:08.046Z,46.2
2022-09-21T11:42:24.283Z,44.9
2022-09-21T11:44:56.755Z,45.1
2022-09-21T11:46:12.998Z,45.7
2022-09-21T11:47:29.235Z,44.1
2022-09-21T11:48:45.479Z,45.2
2022-09-21T11:50:01.712Z,56.7
2022-09-21T11:52:34.201Z,59.9
2022-09-21T11:53:50.447Z,55.7
2022-09-21T11:55:06.683Z,65.9
2022-09-21T11:56:21.940Z,47.3
2022-09-21T11:57:38.173Z,43.5
2022-09-21T12:00:10.660Z,44.3
2022-09-21T12:01:26.904Z,43.3
2022-09-21T12:02:43.147Z,44.1
2022-09-21T12:03:59.384Z,43.8
2022-09-21T12:05:15.613Z,44.6
2022-09-21T12:07:48.093Z,43.3
2022-09-21T12:10:20.578Z,43.3
2022-09-21T12:11:36.818Z,44.7
2022-09-21T12:12:52.072Z,52.6
2022-09-21T12:15:24.559Z,43.1
2022-09-21T12:16:40.788Z,44.6
2022-09-21T12:17:57.033Z,49.3
2022-09-21T12:19:13.285Z,47
2022-09-21T12:20:29.514Z,44.1
2022-09-21T12:21:45.752Z,43.3
2022-09-21T12:23:01.996Z,44.1
2022-09-21T12:24:18.237Z,43.8
2022-09-21T12:25:34.483Z,42.7
2022-09-21T12:26:50.718Z,43
2022-09-21T12:28:06.960Z,43.8
2022-09-21T12:29:22.208Z,44.3
2022-09-21T12:30:38.462Z,64.4
2022-09-21T12:31:54.691Z,43.5
2022-09-21T12:33:10.927Z,43.1
2022-09-21T12:34:27.175Z,43.1
2022-09-21T12:35:43.409Z,45.2
2022-09-21T12:36:58.679Z,44.3
2022-09-21T12:38:14.914Z,45.9
2022-09-21T12:39:30.171Z,45.7
2022-09-21T12:40:46.421Z,48.9
2022-09-21T12:43:18.882Z,56.7
2022-09-21T12:44:35.141Z,46
2022-09-21T12:45:51.378Z,45.4
2022-09-21T12:47:07.622Z,44.1
2022-09-21T12:48:23.859Z,47
2022-09-21T12:49:40.091Z,45.6
2022-09-21T12:50:56.328Z,47.6
2022-09-21T12:53:28.817Z,44.1
2022-09-21T12:54:44.074Z,47.2
2022-09-21T12:55:59.336Z,42.8
2022-09-21T12:57:15.572Z,48.6
2022-09-21T12:58:31.817Z,43.9
2022-09-21T12:59:48.042Z,45.4
2022-09-21T13:01:04.283Z,45.7
2022-09-21T13:02:20.525Z,59.6
2022-09-21T13:03:36.774Z,48.6
2022-09-21T13:04:53.012Z,45.1
2022-09-21T13:06:09.252Z,46.4
2022-09-21T13:08:41.724Z,43.9
2022-09-21T13:09:57.969Z,44.3
2022-09-21T13:11:14.216Z,43.6
2022-09-21T13:12:29.475Z,43.5
2022-09-21T13:13:45.712Z,44.6
2022-09-21T13:15:01.958Z,43.8
2022-09-21T13:16:18.179Z,44.1
2022-09-21T13:17:34.436Z,43.1
2022-09-21T13:18:50.665Z,48.8
2022-09-21T13:20:06.912Z,45.1
2022-09-21T13:21:23.144Z,55.5
2022-09-21T13:22:38.420Z,57.5
2022-09-21T13:23:53.675Z,53
2022-09-21T13:25:09.904Z,65.4
2022-09-21T13:26:26.149Z,48.3
2022-09-21T13:28:58.634Z,50.1
2022-09-21T13:30:14.864Z,47.2
2022-09-21T13:31:31.116Z,49.4
2022-09-21T13:32:47.354Z,46.2
2022-09-21T13:34:03.586Z,45.7
2022-09-21T13:35:19.837Z,43.5
2022-09-21T13:36:36.076Z,43.8
2022-09-21T13:39:08.540Z,47.8
2022-09-21T13:40:24.783Z,44.1
2022-09-21T13:41:40.039Z,44.1
2022-09-21T13:42:55.303Z,42.8
2022-09-21T13:44:11.553Z,47.6
2022-09-21T13:45:27.786Z,43.3
2022-09-21T13:46:44.020Z,42.3
2022-09-21T13:48:00.255Z,48.8
2022-09-21T13:49:16.513Z,43.1
2022-09-21T13:50:32.751Z,41.8
2022-09-21T13:51:48.979Z,45.9
2022-09-21T13:54:21.471Z,44.9
2022-09-21T13:55:37.713Z,48
2022-09-21T13:56:53.943Z,47.6
2022-09-21T13:58:10.178Z,45.6
2022-09-21T13:59:26.425Z,43.6
2022-09-21T14:01:57.919Z,46.8
2022-09-21T14:03:14.167Z,46.2
2022-09-21T14:04:30.411Z,48.9
2022-09-21T14:05:46.657Z,44.9
2022-09-21T14:07:02.885Z,44.6
2022-09-21T14:08:19.123Z,43.9
2022-09-21T14:09:35.373Z,44.3
2022-09-21T14:10:51.606Z,42.8
2022-09-21T14:12:07.843Z,49.4
2022-09-21T14:13:24.092Z,45.2
2022-09-21T14:14:40.329Z,45.7
2022-09-21T14:17:12.794Z,42.7
2022-09-21T14:18:29.037Z,43.6
2022-09-21T14:21:00.547Z,45.4
2022-09-21T14:22:16.779Z,59.6
2022-09-21T14:24:49.267Z,45.2
2022-09-21T14:26:05.509Z,45.9
2022-09-21T14:27:21.742Z,44.6
2022-09-21T14:28:37.987Z,44.7
2022-09-21T14:29:54.232Z,44.9
2022-09-21T14:31:10.453Z,47.2
2022-09-21T14:32:26.000Z,51.7
2022-09-21T14:33:42.944Z,56
2022-09-21T14:34:59.187Z,42.8
2022-09-21T14:36:14.436Z,43.3
2022-09-21T14:37:30.673Z,43.6
2022-09-21T14:40:03.161Z,48
2022-09-21T14:41:19.389Z,45.7
2022-09-21T14:42:35.631Z,45.6
2022-09-21T14:43:51.887Z,48.1
2022-09-21T14:45:08.126Z,44.4
2022-09-21T14:46:24.363Z,45.6
2022-09-21T14:47:40.600Z,44.4
2022-09-21T14:48:56.831Z,47.8
2022-09-21T14:50:13.076Z,43.6
2022-09-21T14:51:28.351Z,50.2
2022-09-21T14:52:43.589Z,50.7
2022-09-21T14:55:15.108Z,43.8
2022-09-21T14:56:30.358Z,47.5
2022-09-21T14:57:46.606Z,50.2
2022-09-21T14:59:02.848Z,50.1
2022-09-21T15:00:19.083Z,54.9
2022-09-21T15:01:35.323Z,47.3
2022-09-21T15:02:51.551Z,46
2022-09-21T15:04:07.794Z,43.9
2022-09-21T15:05:24.049Z,46.7
2022-09-21T15:06:40.280Z,54.6
2022-09-21T15:07:56.520Z,50.4
2022-09-21T15:10:28.997Z,48.1
2022-09-21T15:11:44.259Z,52
2022-09-21T15:12:59.517Z,51.7
2022-09-21T15:14:15.755Z,48
2022-09-21T15:15:32.002Z,47.6
2022-09-21T15:18:04.485Z,52.2
2022-09-21T15:19:20.729Z,50.4
2022-09-21T15:20:36.955Z,50.4
2022-09-21T15:21:53.202Z,45.6
2022-09-21T15:23:09.444Z,49.6
2022-09-21T15:25:41.914Z,48.3
2022-09-21T15:26:58.162Z,48.1
2022-09-21T15:28:14.394Z,47.6
2022-09-21T15:29:29.659Z,53
2022-09-21T15:30:45.903Z,46.4
2022-09-21T15:33:18.375Z,44.3
2022-09-21T15:34:34.623Z,47.3
2022-09-21T15:35:50.853Z,45.9
2022-09-21T15:37:07.097Z,44.9
2022-09-21T15:38:23.338Z,47.5
2022-09-21T15:40:55.816Z,48.5
2022-09-21T15:42:12.059Z,44.3
2022-09-21T15:43:28.308Z,44.1
2022-09-21T15:44:44.530Z,45.9
2022-09-21T15:45:59.787Z,43.6
2022-09-21T15:48:32.284Z,46
2022-09-21T15:49:48.519Z,50.1
2022-09-21T15:51:04.759Z,43.1
2022-09-21T15:52:20.998Z,48.6
2022-09-21T15:53:37.231Z,48.3
2022-09-21T15:54:53.476Z,58.4
2022-09-21T15:56:09.712Z,56.3
2022-09-21T15:57:25.966Z,45.1
2022-09-21T15:58:42.197Z,48
2022-09-21T15:59:58.436Z,54.4
2022-09-21T16:01:14.673Z,50.4
2022-09-21T16:03:46.165Z,50.9
2022-09-21T16:05:02.416Z,53.4
2022-09-21T16:06:18.657Z,50.9
2022-09-21T16:08:51.131Z,45.1
2022-09-21T16:11:23.612Z,47.2
2022-09-21T16:12:39.854Z,49.1
2022-09-21T16:13:56.092Z,48.9
2022-09-21T16:15:12.325Z,43.1
2022-09-21T16:16:28.581Z,49.6
2022-09-21T16:19:01.051Z,45.1
2022-09-21T16:20:16.321Z,53.9
2022-09-21T16:21:32.558Z,48
2022-09-21T16:22:48.783Z,47.3
2022-09-21T16:24:05.034Z,46.8
2022-09-21T16:26:37.514Z,44.1
2022-09-21T16:27:53.757Z,44.1
2022-09-21T16:29:09.991Z,49.9
2022-09-21T16:30:26.229Z,44.6
2022-09-21T16:31:42.472Z,50.7
2022-09-21T16:32:58.708Z,51.5
2022-09-21T16:34:14.952Z,49.6
2022-09-21T16:35:31.196Z,47.2
2022-09-21T16:36:46.454Z,50.7
2022-09-21T16:38:02.683Z,51.2
2022-09-21T16:39:18.927Z,49.1
2022-09-21T16:41:51.401Z,48.6
2022-09-21T16:43:07.647Z,49.1
2022-09-21T16:44:23.889Z,47
2022-09-21T16:45:40.122Z,46.8
2022-09-21T16:46:56.368Z,48.3
2022-09-21T16:49:28.853Z,49.9
2022-09-21T16:50:45.101Z,46.7
2022-09-21T16:52:01.342Z,47.3
2022-09-21T16:53:16.599Z,47.2
2022-09-21T16:54:32.829Z,47.6
2022-09-21T16:57:05.316Z,51.4
2022-09-21T16:58:21.558Z,46.2
2022-09-21T16:59:37.786Z,45.1
2022-09-21T17:00:54.039Z,44.6
2022-09-21T17:02:10.263Z,49.3
2022-09-21T17:04:42.749Z,50.9
2022-09-21T17:05:59.000Z,49.9
2022-09-21T17:07:15.225Z,45.6
2022-09-21T17:08:31.476Z,45.1
2022-09-21T17:09:46.720Z,45.2
2022-09-21T17:12:19.217Z,44.9
2022-09-21T17:13:35.437Z,48.5
2022-09-21T17:14:51.695Z,47.5
2022-09-21T17:16:07.916Z,51.5
2022-09-21T17:17:24.166Z,53.8
2022-09-21T17:19:56.637Z,59.6
2022-09-21T17:21:12.886Z,48.9
2022-09-21T17:22:29.135Z,47.2
2022-09-21T17:23:45.368Z,47.6
2022-09-21T17:25:01.612Z,48.8
2022-09-21T17:26:16.856Z,47.2
2022-09-21T17:27:33.104Z,49.9
2022-09-21T17:28:49.343Z,45.7
2022-09-21T17:30:05.583Z,50.1
2022-09-21T17:31:21.828Z,45.9
2022-09-21T17:32:38.075Z,49.7
2022-09-21T17:35:10.538Z,48.5
2022-09-21T17:36:26.774Z,50.1
2022-09-21T17:37:43.032Z,52
2022-09-21T17:38:59.260Z,45.2
2022-09-21T17:40:15.516Z,50.5
2022-09-21T17:42:47.989Z,45.9
2022-09-21T17:44:03.249Z,51.2
2022-09-21T17:45:19.478Z,53.3
2022-09-21T17:46:35.723Z,49.4
2022-09-21T17:47:52.008Z,45.6
2022-09-21T17:50:24.606Z,55.2
2022-09-21T17:51:40.905Z,48.9
2022-09-21T17:52:57.184Z,50.9
2022-09-21T17:54:13.488Z,45.2
2022-09-21T17:55:29.778Z,46.5
2022-09-21T17:58:02.371Z,50.2
2022-09-21T17:59:18.667Z,50.7
2022-09-21T18:00:33.972Z,44.6
2022-09-21T18:01:50.278Z,44.4
2022-09-21T18:03:06.566Z,47
2022-09-21T18:05:39.144Z,44.7
2022-09-21T18:06:55.441Z,45.1
2022-09-21T18:08:11.741Z,46.4
2022-09-21T18:09:28.026Z,44.7
2022-09-21T18:10:44.323Z,46
2022-09-21T18:13:16.916Z,44.9
2022-09-21T18:14:33.217Z,44.3
2022-09-21T18:15:49.499Z,46
2022-09-21T18:17:04.822Z,44.7
2022-09-21T18:18:21.115Z,47.8
2022-09-21T18:20:53.692Z,46.8
2022-09-21T18:22:09.988Z,51.4
2022-09-21T18:23:26.276Z,46.7
2022-09-21T18:24:42.569Z,45.7
2022-09-21T18:25:58.867Z,53.1
2022-09-21T18:28:31.459Z,49.9
2022-09-21T18:29:47.747Z,47.5
2022-09-21T18:31:04.050Z,45.2
2022-09-21T18:32:20.344Z,44.1
2022-09-21T18:33:35.659Z,45.7
2022-09-21T18:36:08.235Z,45.1
2022-09-21T18:37:24.546Z,44.4
2022-09-21T18:38:40.841Z,44.1
2022-09-21T18:39:57.129Z,45.4
2022-09-21T18:41:13.423Z,45.4
2022-09-21T18:43:46.012Z,45.2
2022-09-21T18:45:02.302Z,44.3
2022-09-21T18:46:18.596Z,48.6
2022-09-21T18:47:34.892Z,49.4
2022-09-21T18:48:51.196Z,46.5
2022-09-21T18:51:22.791Z,49.9
2022-09-21T18:52:39.095Z,44.3
2022-09-21T18:53:55.375Z,44.1
2022-09-21T18:55:11.680Z,47.6
2022-09-21T18:56:27.979Z,44.7
2022-09-21T18:57:44.256Z,48
2022-09-21T18:59:00.563Z,44.9
2022-09-21T19:00:16.855Z,45.9
2022-09-21T19:01:33.151Z,46.4
2022-09-21T19:02:49.437Z,44.6
2022-09-21T19:04:05.742Z,44.6
2022-09-21T19:06:38.339Z,45.1
2022-09-21T19:07:53.646Z,50.1
2022-09-21T19:09:09.941Z,44.6
2022-09-21T19:10:26.221Z,53.6
2022-09-21T19:11:41.537Z,45.4
2022-09-21T19:14:14.126Z,50.4
2022-09-21T19:15:30.426Z,47.8
2022-09-21T19:16:46.724Z,45.4
2022-09-21T19:18:03.026Z,47.2
2022-09-21T19:19:19.310Z,44.9
2022-09-21T19:21:51.914Z,44.3
2022-09-21T19:23:08.192Z,50.9
2022-09-21T19:24:24.487Z,43.9
2022-09-21T19:25:40.782Z,44.6
2022-09-21T19:26:57.080Z,53.4
2022-09-21T19:29:28.685Z,48.6
2022-09-21T19:30:44.992Z,44.1
2022-09-21T19:32:01.274Z,45.6